Tamel Aike, Argentina
Current Conditions -  °F | °C
As of 9:00 PM on Wednesday 28 Jan 2015 (Local Time) from SCBA Reporting Station
Clear Clear  
Wind Chill: 57°   Ceiling: Unl
Heat Index: 57°   Visibility: 6mi
Dew Point: 43°   Wind: 16mph
Humidity: 59%   Direction: 300°WNW
Pressure: 30.06"   Gusts: NA
Location:  48.32°S, 70.94°W
Report Text: SCBA 290000Z AUTO 30014KT 260V330 CAVOK 14/06 Q1018
Loading
Personal Weather Stations






























Interactive Weather Map New forecast layout! Learn more

10-Day Weather Forecast

Advertisements
Track Severe Weather on mobile